createdAt,value
2024-01-05T00:01:34.298Z,3.15
2024-01-05T00:06:28.893Z,3.78
2024-01-05T00:08:55.496Z,2.20
2024-01-05T00:11:22.779Z,3.90
2024-01-05T00:13:49.493Z,2.33
2024-01-05T00:16:22.470Z,2.92
2024-01-05T00:21:26.344Z,3.35
2024-01-05T00:23:54.394Z,5.05
2024-01-05T00:26:21.277Z,4.57
2024-01-05T00:28:49.450Z,4.72
2024-01-05T00:31:17.116Z,3.70
2024-01-05T00:33:44.923Z,3.05
2024-01-05T00:36:12.197Z,3.33
2024-01-05T00:38:39.789Z,2.90
2024-01-05T00:41:06.325Z,4.03
2024-01-05T00:43:32.828Z,3.05
2024-01-05T00:45:59.356Z,3.42
2024-01-05T00:50:54.152Z,3.13
2024-01-05T00:53:20.637Z,2.70
2024-01-05T00:55:47.130Z,4.40
2024-01-05T00:58:13.707Z,3.92
2024-01-05T01:03:06.923Z,1.83
2024-01-05T01:05:33.649Z,3.38
2024-01-05T01:08:01.365Z,3.78
2024-01-05T01:10:27.850Z,3.55
2024-01-05T01:12:54.463Z,4.20
2024-01-05T01:17:48.094Z,4.95
2024-01-05T01:20:14.937Z,6.05
2024-01-05T01:22:41.458Z,4.68
2024-01-05T01:25:08.572Z,4.22
2024-01-05T01:27:35.548Z,6.07
2024-01-05T01:30:02.419Z,4.90
2024-01-05T01:32:29.694Z,3.22
2024-01-05T01:34:56.504Z,2.28
2024-01-05T01:37:23.038Z,3.45
2024-01-05T01:39:49.540Z,2.40
2024-01-05T01:42:16.230Z,4.03
2024-01-05T01:44:42.842Z,2.75
2024-01-05T01:47:09.502Z,3.78
2024-01-05T01:49:36.645Z,3.08
2024-01-05T01:52:03.471Z,1.98
2024-01-05T01:54:34.330Z,1.30
2024-01-05T01:57:03.546Z,2.05
2024-01-05T01:59:30.322Z,2.30
2024-01-05T02:01:58.716Z,3.35
2024-01-05T02:04:27.178Z,1.73
2024-01-05T02:06:53.932Z,1.88
2024-01-05T02:09:20.521Z,3.10
2024-01-05T02:14:13.591Z,2.58
2024-01-05T02:16:42.362Z,2.65
2024-01-05T02:19:09.389Z,6.13
2024-01-05T02:21:40.293Z,2.10
2024-01-05T02:24:07.094Z,2.72
2024-01-05T02:26:33.835Z,4.10
2024-01-05T02:29:03.855Z,3.28
2024-01-05T02:31:30.696Z,5.03
2024-01-05T02:33:57.282Z,3.45
2024-01-05T02:36:23.931Z,2.05
2024-01-05T02:41:16.960Z,4.05
2024-01-05T02:43:43.429Z,1.67
2024-01-05T02:46:10.419Z,2.35
2024-01-05T02:48:37.084Z,3.28
2024-01-05T02:51:03.761Z,3.60
2024-01-05T02:55:56.697Z,3.47
2024-01-05T02:58:23.165Z,2.45
2024-01-05T03:00:49.821Z,3.53
2024-01-05T03:03:16.479Z,2.80
2024-01-05T03:05:43.115Z,2.65
2024-01-05T03:10:36.724Z,2.35
2024-01-05T03:13:03.914Z,3.67
2024-01-05T03:15:30.495Z,2.88
2024-01-05T03:20:23.619Z,3.05
2024-01-05T03:22:50.116Z,3.70
2024-01-05T03:25:16.810Z,2.78
2024-01-05T03:27:43.306Z,2.35
2024-01-05T03:30:10.258Z,2.80
2024-01-05T03:32:36.839Z,2.80
2024-01-05T03:37:29.897Z,2.35
2024-01-05T03:39:56.367Z,2.33
2024-01-05T03:42:22.915Z,3.78
2024-01-05T03:47:15.771Z,3.33
2024-01-05T03:49:42.406Z,3.08
2024-01-05T03:52:10.767Z,3.97
2024-01-05T03:54:37.346Z,2.70
2024-01-05T03:59:30.384Z,3.10
2024-01-05T04:01:57.034Z,2.10
2024-01-05T04:06:52.343Z,6.90
2024-01-05T04:09:19.025Z,3.30
2024-01-05T04:14:12.159Z,3.92
2024-01-05T04:16:38.693Z,4.05
2024-01-05T04:19:05.304Z,4.22
2024-01-05T04:23:59.354Z,5.40
2024-01-05T04:26:26.457Z,5.03
2024-01-05T04:28:53.021Z,2.90
2024-01-05T04:31:19.821Z,3.47
2024-01-05T04:33:46.498Z,186.88
2024-01-05T04:38:44.080Z,39.55
2024-01-05T04:43:37.362Z,28.83
2024-01-05T04:46:03.997Z,25.98
2024-01-05T04:48:30.901Z,26.63
2024-01-05T04:50:57.672Z,34.13
2024-01-05T04:55:50.761Z,38.40
2024-01-05T04:58:17.275Z,37.17
2024-01-05T05:00:43.844Z,24.35
2024-01-05T05:03:15.298Z,27.73
2024-01-05T05:05:42.101Z,22.38
2024-01-05T05:08:11.664Z,17.55
2024-01-05T05:10:38.740Z,15.00
2024-01-05T05:13:05.361Z,24.60
2024-01-05T05:15:32.050Z,19.00
2024-01-05T05:20:25.195Z,19.85
2024-01-05T05:22:51.680Z,7.15
2024-01-05T05:25:18.230Z,9.45
2024-01-05T05:27:44.798Z,10.10
2024-01-05T05:30:11.756Z,11.60
2024-01-05T05:32:38.449Z,10.93
2024-01-05T05:37:32.848Z,17.35
2024-01-05T05:39:59.601Z,19.33
2024-01-05T05:44:52.625Z,19.20
2024-01-05T05:47:19.136Z,20.63
2024-01-05T05:49:45.705Z,24.90
2024-01-05T05:52:12.274Z,16.38
2024-01-05T05:54:38.779Z,15.40
2024-01-05T05:57:09.142Z,46.97
2024-01-05T05:59:35.906Z,60.55
2024-01-05T06:04:28.888Z,18.88
2024-01-05T06:06:55.832Z,17.58
2024-01-05T06:09:22.572Z,5.25
2024-01-05T06:14:15.535Z,6.47
2024-01-05T06:16:42.063Z,8.63
2024-01-05T06:19:10.642Z,11.07
2024-01-05T06:21:37.440Z,13.32
2024-01-05T06:26:32.247Z,26.20
2024-01-05T06:28:58.767Z,43.00
2024-01-05T06:31:25.887Z,23.88
2024-01-05T06:33:52.558Z,20.83
2024-01-05T06:36:20.457Z,19.75
2024-01-05T06:38:47.037Z,13.73
2024-01-05T06:41:13.543Z,13.35
2024-01-05T06:43:40.069Z,13.05
2024-01-05T06:46:06.613Z,9.65
2024-01-05T06:48:33.392Z,12.48
2024-01-05T06:51:01.074Z,17.95
2024-01-05T06:53:30.023Z,36.72
2024-01-05T06:55:56.619Z,25.88
2024-01-05T07:00:51.853Z,15.43
2024-01-05T07:03:18.634Z,20.08
2024-01-05T07:05:45.699Z,18.98
2024-01-05T07:08:12.423Z,13.70
2024-01-05T07:13:08.057Z,12.07
2024-01-05T07:15:34.798Z,10.40
2024-01-05T07:18:01.509Z,10.90
2024-01-05T07:20:28.204Z,14.07
2024-01-05T07:25:21.097Z,14.00
2024-01-05T07:27:47.543Z,16.08
2024-01-05T07:30:14.425Z,17.50
2024-01-05T07:32:41.027Z,18.35
2024-01-05T07:35:07.925Z,16.15
2024-01-05T07:37:34.536Z,16.23
2024-01-05T07:42:28.858Z,20.95
2024-01-05T07:44:58.542Z,13.95
2024-01-05T07:47:25.568Z,17.58
2024-01-05T07:49:52.271Z,13.60
2024-01-05T07:54:45.430Z,18.67
2024-01-05T07:57:12.198Z,18.00
2024-01-05T08:02:05.232Z,9.98
2024-01-05T08:04:31.829Z,9.95
2024-01-05T08:09:25.105Z,10.80
2024-01-05T08:14:18.496Z,9.30
2024-01-05T08:16:45.058Z,9.90
2024-01-05T08:19:11.785Z,10.73
2024-01-05T08:21:38.748Z,11.13
2024-01-05T08:24:05.822Z,10.45
2024-01-05T08:26:32.383Z,11.73
2024-01-05T08:28:58.883Z,10.57
2024-01-05T08:31:25.498Z,12.30
2024-01-05T08:33:52.364Z,12.90
2024-01-05T08:36:19.327Z,15.60
2024-01-05T08:38:46.375Z,12.25
2024-01-05T08:41:15.517Z,13.13
2024-01-05T08:43:45.250Z,11.60
2024-01-05T08:46:12.232Z,13.02
2024-01-05T08:48:39.834Z,8.73
2024-01-05T08:51:06.501Z,7.78
2024-01-05T08:53:33.029Z,7.75
2024-01-05T08:55:59.555Z,9.90
2024-01-05T09:00:52.643Z,4.70
2024-01-05T09:05:47.446Z,11.45
2024-01-05T09:08:14.045Z,7.38
2024-01-05T09:13:08.419Z,7.63
2024-01-05T09:15:35.703Z,7.85
2024-01-05T09:18:04.081Z,7.57
2024-01-05T09:20:30.739Z,7.25
2024-01-05T09:25:23.739Z,7.95
2024-01-05T09:30:16.863Z,7.60
2024-01-05T09:32:43.442Z,7.82
2024-01-05T09:37:37.364Z,6.60
2024-01-05T09:40:04.366Z,9.75
2024-01-05T09:42:30.969Z,8.40
2024-01-05T09:44:58.298Z,8.23
2024-01-05T09:47:25.277Z,6.55
2024-01-05T09:49:53.004Z,8.40
2024-01-05T09:52:21.694Z,9.93
2024-01-05T09:54:48.487Z,7.00
2024-01-05T09:57:21.504Z,6.68
2024-01-05T09:59:49.185Z,5.72
2024-01-05T10:02:28.070Z,7.25
2024-01-05T10:04:56.108Z,5.95
2024-01-05T10:07:22.633Z,6.20
2024-01-05T10:09:53.770Z,5.78
2024-01-05T10:12:20.324Z,8.30
2024-01-05T10:17:17.042Z,7.30
2024-01-05T10:19:43.931Z,6.35
2024-01-05T10:22:12.140Z,5.63
2024-01-05T10:24:40.097Z,8.27
2024-01-05T10:27:09.033Z,7.72
2024-01-05T10:29:39.927Z,5.63
2024-01-05T10:32:13.524Z,6.93
2024-01-05T10:34:42.209Z,8.82
2024-01-05T10:37:09.507Z,7.45
2024-01-05T10:39:36.610Z,5.47
2024-01-05T10:42:15.997Z,7.00
2024-01-05T10:44:46.319Z,8.18
2024-01-05T10:47:16.304Z,7.68
2024-01-05T10:49:48.131Z,9.15
2024-01-05T10:52:16.273Z,6.93
2024-01-05T10:54:45.780Z,7.22
2024-01-05T10:57:13.807Z,7.13
2024-01-05T10:59:40.408Z,6.40
2024-01-05T11:04:42.149Z,8.10
2024-01-05T11:07:10.447Z,8.68
2024-01-05T11:09:49.260Z,6.53
2024-01-05T11:12:52.580Z,6.50
2024-01-05T11:16:05.389Z,8.00
2024-01-05T11:18:57.921Z,7.57
2024-01-05T11:21:36.440Z,8.35
2024-01-05T11:24:03.816Z,6.10
2024-01-05T11:26:36.538Z,6.38
2024-01-05T11:29:04.202Z,6.07
2024-01-05T11:31:48.984Z,6.35
2024-01-05T11:34:37.865Z,7.85
2024-01-05T11:37:08.180Z,7.20
2024-01-05T11:39:50.151Z,6.32
2024-01-05T11:42:31.461Z,7.22
2024-01-05T11:44:59.801Z,7.03
2024-01-05T11:47:46.595Z,8.23
2024-01-05T11:50:29.920Z,5.97
2024-01-05T11:53:23.885Z,7.47
2024-01-05T11:56:12.049Z,7.95
2024-01-05T11:58:44.433Z,9.65
2024-01-05T12:01:13.710Z,9.07
2024-01-05T12:03:41.508Z,11.07
2024-01-05T12:06:13.776Z,9.07
2024-01-05T12:08:41.626Z,8.88
2024-01-05T12:11:11.252Z,8.70
2024-01-05T12:13:39.070Z,12.73
2024-01-05T12:16:07.444Z,9.60
2024-01-05T12:18:42.899Z,9.48
2024-01-05T12:21:12.616Z,10.00
2024-01-05T12:23:39.372Z,11.25
2024-01-05T12:26:08.018Z,13.60
2024-01-05T12:28:36.828Z,13.00
2024-01-05T12:31:05.819Z,9.73
2024-01-05T12:33:36.057Z,12.18
2024-01-05T12:36:05.756Z,11.52
2024-01-05T12:38:33.075Z,11.00
2024-01-05T12:41:12.105Z,11.35
2024-01-05T12:43:45.574Z,14.05
2024-01-05T12:46:12.397Z,10.25
2024-01-05T12:48:39.426Z,12.65
2024-01-05T12:51:21.067Z,10.32
2024-01-05T12:53:58.451Z,9.73
2024-01-05T12:56:25.127Z,12.38
2024-01-05T12:58:51.678Z,11.88
2024-01-05T13:01:23.125Z,12.48
2024-01-05T13:03:57.513Z,12.80
2024-01-05T13:06:27.188Z,12.05
2024-01-05T13:08:54.107Z,15.30
2024-01-05T13:11:21.932Z,13.25
2024-01-05T13:13:52.581Z,13.60
2024-01-05T13:16:19.997Z,11.00
2024-01-05T13:18:47.212Z,10.40
2024-01-05T13:21:13.992Z,10.88
2024-01-05T13:23:42.077Z,12.23
2024-01-05T13:26:09.097Z,17.48
2024-01-05T13:28:36.949Z,14.63
2024-01-05T13:31:03.985Z,11.02
2024-01-05T13:33:31.172Z,10.75
2024-01-05T13:35:58.046Z,14.98
2024-01-05T13:38:24.603Z,13.43
2024-01-05T13:43:17.698Z,11.98
2024-01-05T13:45:44.273Z,16.13
2024-01-05T13:48:10.964Z,12.48
2024-01-05T13:50:37.593Z,13.55
2024-01-05T13:55:31.898Z,13.27
2024-01-05T13:57:58.463Z,19.20
2024-01-05T14:00:25.160Z,16.67
2024-01-05T14:02:51.676Z,17.48
2024-01-05T14:07:44.597Z,19.45
2024-01-05T14:12:37.750Z,24.20
2024-01-05T14:15:07.129Z,18.50
2024-01-05T14:17:34.346Z,20.30
2024-01-05T14:20:01.082Z,19.35
2024-01-05T14:22:27.640Z,25.80
2024-01-05T14:27:20.649Z,15.88
2024-01-05T14:29:47.206Z,15.93
2024-01-05T14:34:43.535Z,18.52
2024-01-05T14:37:10.501Z,16.23
2024-01-05T14:39:37.417Z,18.05
2024-01-05T14:42:04.321Z,18.35
2024-01-05T14:44:30.849Z,19.77
2024-01-05T14:49:24.485Z,18.10
2024-01-05T14:51:51.389Z,21.38
2024-01-05T14:54:17.966Z,20.67
2024-01-05T14:56:46.287Z,19.65
2024-01-05T14:59:12.921Z,20.95
2024-01-05T15:01:39.825Z,19.15
2024-01-05T15:04:06.760Z,21.98
2024-01-05T15:06:33.589Z,21.38
2024-01-05T15:09:00.302Z,20.67
2024-01-05T15:11:26.839Z,21.40
2024-01-05T15:16:19.926Z,20.55
2024-01-05T15:21:22.746Z,19.25
2024-01-05T15:23:49.252Z,28.02
2024-01-05T15:28:42.166Z,25.60
2024-01-05T15:33:43.207Z,25.50
2024-01-05T15:36:09.804Z,24.85
2024-01-05T15:41:02.842Z,29.70
2024-01-05T15:43:29.384Z,31.45
2024-01-05T15:48:22.511Z,31.27
2024-01-05T15:50:49.075Z,29.42
2024-01-05T15:53:15.606Z,33.55
2024-01-05T15:58:14.620Z,33.85
2024-01-05T16:00:41.289Z,33.65
2024-01-05T16:03:08.083Z,29.75
2024-01-05T16:05:34.975Z,30.65
2024-01-05T16:08:01.512Z,26.27
2024-01-05T16:12:54.963Z,30.58
2024-01-05T16:17:48.009Z,27.30
2024-01-05T16:22:41.100Z,33.05
2024-01-05T16:25:08.032Z,35.10
2024-01-05T16:27:37.216Z,32.78
2024-01-05T16:30:05.913Z,34.38
2024-01-05T16:32:32.579Z,33.50
2024-01-05T16:37:25.604Z,37.35
2024-01-05T16:39:52.192Z,36.60
2024-01-05T16:42:18.726Z,31.60
2024-01-05T16:47:11.638Z,34.55
2024-01-05T16:49:38.227Z,30.98
2024-01-05T16:52:05.255Z,35.67
2024-01-05T16:54:31.862Z,44.70
2024-01-05T16:59:25.817Z,36.40
2024-01-05T17:01:52.312Z,39.97
2024-01-05T17:06:50.225Z,33.17
2024-01-05T17:09:16.927Z,37.90
2024-01-05T17:14:13.223Z,32.78
2024-01-05T17:16:39.791Z,32.08
2024-01-05T17:21:32.911Z,34.22
2024-01-05T17:26:26.995Z,32.35
2024-01-05T17:28:53.698Z,34.28
2024-01-05T17:31:20.337Z,34.47
2024-01-05T17:33:47.117Z,32.20
2024-01-05T17:36:14.515Z,32.72
2024-01-05T17:38:41.368Z,31.23
2024-01-05T17:41:07.931Z,33.40
2024-01-05T17:46:04.950Z,32.42
2024-01-05T17:48:33.306Z,30.05
2024-01-05T17:51:02.069Z,31.38
2024-01-05T17:53:29.566Z,29.67
2024-01-05T17:55:56.080Z,38.30
2024-01-05T17:58:22.729Z,41.72
2024-01-05T18:00:49.752Z,35.75
2024-01-05T18:03:16.497Z,36.97
2024-01-05T18:05:43.208Z,33.55
2024-01-05T18:08:09.766Z,35.00
2024-01-05T18:13:03.891Z,35.08
2024-01-05T18:15:30.415Z,31.42
2024-01-05T18:20:23.443Z,31.80
2024-01-05T18:22:50.111Z,33.03
2024-01-05T18:25:16.660Z,35.45
2024-01-05T18:30:10.020Z,34.22
2024-01-05T18:32:36.683Z,36.20
2024-01-05T18:35:03.481Z,29.60
2024-01-05T18:37:30.119Z,27.80
2024-01-05T18:42:23.191Z,29.73
2024-01-05T18:47:16.660Z,64.78
2024-01-05T18:49:43.272Z,72.97
2024-01-05T18:52:09.920Z,43.45
2024-01-05T18:57:03.271Z,59.97
2024-01-05T18:59:29.885Z,50.92
2024-01-05T19:04:23.051Z,84.07
2024-01-05T19:06:49.773Z,58.85
2024-01-05T19:09:16.539Z,69.78
2024-01-05T19:11:43.340Z,113.88
2024-01-05T19:14:09.947Z,172.10
2024-01-05T19:19:10.952Z,108.75
2024-01-05T19:21:49.794Z,92.22
2024-01-05T19:24:22.375Z,50.78
2024-01-05T19:29:15.404Z,61.50
2024-01-05T19:34:10.330Z,54.70
2024-01-05T19:36:37.891Z,52.13
2024-01-05T19:39:05.407Z,45.08
2024-01-05T19:41:32.008Z,54.22
2024-01-05T19:46:26.701Z,47.25
2024-01-05T19:48:55.576Z,53.40
2024-01-05T19:51:23.482Z,47.65
2024-01-05T19:53:50.101Z,33.55
2024-01-05T19:58:43.175Z,34.75
2024-01-05T20:01:09.912Z,32.00
2024-01-05T20:03:36.596Z,31.70
2024-01-05T20:08:29.822Z,35.17
2024-01-05T20:10:56.351Z,32.47
2024-01-05T20:13:22.887Z,26.58
2024-01-05T20:15:49.809Z,29.75
2024-01-05T20:18:16.584Z,24.05
2024-01-05T20:20:43.220Z,29.58
2024-01-05T20:23:11.132Z,25.63
2024-01-05T20:25:38.782Z,30.70
2024-01-05T20:28:07.486Z,36.35
2024-01-05T20:30:34.098Z,31.02
2024-01-05T20:33:02.306Z,26.08
2024-01-05T20:35:28.780Z,23.98
2024-01-05T20:37:55.324Z,22.75
2024-01-05T20:40:22.216Z,21.35
2024-01-05T20:42:49.161Z,26.42
2024-01-05T20:45:15.984Z,23.80
2024-01-05T20:47:42.779Z,25.27
2024-01-05T20:50:10.639Z,23.55
2024-01-05T20:52:37.299Z,26.58
2024-01-05T20:57:30.685Z,27.40
2024-01-05T21:02:23.648Z,31.08
2024-01-05T21:04:50.298Z,28.23
2024-01-05T21:07:17.890Z,32.08
2024-01-05T21:09:44.704Z,26.23
2024-01-05T21:12:11.406Z,25.75
2024-01-05T21:14:41.015Z,31.20
2024-01-05T21:17:08.229Z,26.70
2024-01-05T21:19:41.471Z,23.55
2024-01-05T21:22:08.463Z,28.95
2024-01-05T21:24:39.898Z,24.20
2024-01-05T21:27:06.484Z,23.60
2024-01-05T21:29:33.105Z,26.15
2024-01-05T21:31:59.612Z,28.13
2024-01-05T21:34:26.165Z,24.58
2024-01-05T21:39:19.331Z,23.23
2024-01-05T21:41:47.784Z,26.38
2024-01-05T21:44:14.878Z,30.77
2024-01-05T21:46:41.477Z,27.35
2024-01-05T21:51:37.212Z,27.75
2024-01-05T21:54:04.780Z,24.83
2024-01-05T21:56:31.898Z,27.30
2024-01-05T21:58:58.654Z,22.02
2024-01-05T22:03:51.793Z,22.58
2024-01-05T22:06:18.876Z,30.70
2024-01-05T22:08:46.335Z,50.95
2024-01-05T22:11:12.848Z,60.05
2024-01-05T22:16:06.264Z,34.40
2024-01-05T22:18:38.126Z,61.35
2024-01-05T22:21:12.445Z,43.53
2024-01-05T22:23:41.583Z,30.33
2024-01-05T22:26:09.152Z,26.98
2024-01-05T22:28:38.500Z,29.33
2024-01-05T22:31:11.069Z,26.83
2024-01-05T22:33:40.196Z,30.90
2024-01-05T22:36:11.543Z,31.55
2024-01-05T22:38:38.890Z,32.53
2024-01-05T22:41:10.065Z,25.08
2024-01-05T22:43:37.802Z,26.42
2024-01-05T22:46:14.984Z,25.42
2024-01-05T22:48:47.166Z,28.65
2024-01-05T22:51:21.780Z,28.20
2024-01-05T22:53:48.625Z,31.10
2024-01-05T22:56:15.169Z,30.20
2024-01-05T23:01:08.266Z,25.02
2024-01-05T23:03:34.906Z,22.75
2024-01-05T23:06:01.624Z,24.48
2024-01-05T23:08:28.272Z,22.05
2024-01-05T23:13:21.181Z,23.63
2024-01-05T23:15:49.193Z,22.70
2024-01-05T23:18:15.972Z,25.40
2024-01-05T23:20:42.594Z,25.90
2024-01-05T23:25:35.659Z,21.95
2024-01-05T23:28:02.218Z,23.13
2024-01-05T23:32:55.462Z,20.92
2024-01-05T23:35:22.135Z,20.88
2024-01-05T23:40:15.608Z,19.73
2024-01-05T23:42:43.022Z,24.02
2024-01-05T23:45:10.214Z,19.35
2024-01-05T23:47:36.758Z,19.95
2024-01-05T23:50:05.536Z,17.73
2024-01-05T23:52:33.439Z,18.77
2024-01-05T23:55:00.284Z,20.08
2024-01-05T23:57:26.918Z,22.30
2024-01-05T23:59:53.460Z,22.98
